sensor_id;sensor_type;location;lat;lon;timestamp;temperature;humidity
68378;DHT22;55322;48.146;11.516;2024-01-27T00:00:13;1.90;90.60
68378;DHT22;55322;48.146;11.516;2024-01-27T00:02:39;1.97;90.32
68378;DHT22;55322;48.146;11.516;2024-01-27T00:05:05;2.00;90.30
68378;DHT22;55322;48.146;11.516;2024-01-27T00:07:30;2.01;90.22
68378;DHT22;55322;48.146;11.516;2024-01-27T00:09:56;2.05;90.15
68378;DHT22;55322;48.146;11.516;2024-01-27T00:12:23;2.04;89.92
68378;DHT22;55322;48.146;11.516;2024-01-27T00:14:48;2.07;89.86
68378;DHT22;55322;48.146;11.516;2024-01-27T00:17:14;2.01;89.91
68378;DHT22;55322;48.146;11.516;2024-01-27T00:19:39;2.01;89.93
68378;DHT22;55322;48.146;11.516;2024-01-27T00:22:07;2.00;90.07
68378;DHT22;55322;48.146;11.516;2024-01-27T00:24:32;1.95;90.29
68378;DHT22;55322;48.146;11.516;2024-01-27T00:26:57;1.90;90.37
68378;DHT22;55322;48.146;11.516;2024-01-27T00:29:23;1.85;90.67
68378;DHT22;55322;48.146;11.516;2024-01-27T00:31:48;1.77;90.70
68378;DHT22;55322;48.146;11.516;2024-01-27T00:34:16;1.68;91.03
68378;DHT22;55322;48.146;11.516;2024-01-27T00:36:41;1.64;91.29
68378;DHT22;55322;48.146;11.516;2024-01-27T00:39:14;1.59;91.66
68378;DHT22;55322;48.146;11.516;2024-01-27T00:41:39;1.52;91.90
68378;DHT22;55322;48.146;11.516;2024-01-27T00:44:05;1.46;91.97
68378;DHT22;55322;48.146;11.516;2024-01-27T00:46:30;1.46;92.04
68378;DHT22;55322;48.146;11.516;2024-01-27T00:48:55;1.46;92.19
68378;DHT22;55322;48.146;11.516;2024-01-27T00:51:21;1.43;92.36
68378;DHT22;55322;48.146;11.516;2024-01-27T00:53:46;1.42;92.37
68378;DHT22;55322;48.146;11.516;2024-01-27T00:56:11;1.39;92.51
68378;DHT22;55322;48.146;11.516;2024-01-27T00:58:37;1.36;92.69
68378;DHT22;55322;48.146;11.516;2024-01-27T01:01:02;1.35;92.70
68378;DHT22;55322;48.146;11.516;2024-01-27T01:03:28;1.35;92.71
68378;DHT22;55322;48.146;11.516;2024-01-27T01:05:54;1.29;92.78
68378;DHT22;55322;48.146;11.516;2024-01-27T01:08:19;1.30;92.77
68378;DHT22;55322;48.146;11.516;2024-01-27T01:10:44;1.26;92.67
68378;DHT22;55322;48.146;11.516;2024-01-27T01:13:10;1.28;92.69
68378;DHT22;55322;48.146;11.516;2024-01-27T01:15:36;1.23;92.70
68378;DHT22;55322;48.146;11.516;2024-01-27T01:18:02;1.23;92.76
68378;DHT22;55322;48.146;11.516;2024-01-27T01:20:27;1.25;92.82
68378;DHT22;55322;48.146;11.516;2024-01-27T01:22:53;1.25;92.78
68378;DHT22;55322;48.146;11.516;2024-01-27T01:25:18;1.29;92.78
68378;DHT22;55322;48.146;11.516;2024-01-27T01:27:45;1.33;92.70
68378;DHT22;55322;48.146;11.516;2024-01-27T01:30:10;1.36;92.49
68378;DHT22;55322;48.146;11.516;2024-01-27T01:32:36;1.38;92.39
68378;DHT22;55322;48.146;11.516;2024-01-27T01:35:01;1.44;92.27
68378;DHT22;55322;48.146;11.516;2024-01-27T01:37:27;1.47;92.17
68378;DHT22;55322;48.146;11.516;2024-01-27T01:39:52;1.49;92.23
68378;DHT22;55322;48.146;11.516;2024-01-27T01:42:17;1.47;92.10
68378;DHT22;55322;48.146;11.516;2024-01-27T01:44:45;1.47;91.91
68378;DHT22;55322;48.146;11.516;2024-01-27T01:47:11;1.47;91.85
68378;DHT22;55322;48.146;11.516;2024-01-27T01:49:36;1.47;91.87
68378;DHT22;55322;48.146;11.516;2024-01-27T01:52:02;1.47;91.71
68378;DHT22;55322;48.146;11.516;2024-01-27T01:54:28;1.50;91.62
68378;DHT22;55322;48.146;11.516;2024-01-27T01:56:55;1.50;91.36
68378;DHT22;55322;48.146;11.516;2024-01-27T01:59:21;1.47;91.19
68378;DHT22;55322;48.146;11.516;2024-01-27T02:01:46;1.44;91.06
68378;DHT22;55322;48.146;11.516;2024-01-27T02:04:11;1.43;90.95
68378;DHT22;55322;48.146;11.516;2024-01-27T02:06:37;1.47;90.89
68378;DHT22;55322;48.146;11.516;2024-01-27T02:09:02;1.47;90.55
68378;DHT22;55322;48.146;11.516;2024-01-27T02:11:28;1.44;90.50
68378;DHT22;55322;48.146;11.516;2024-01-27T02:13:53;1.43;90.61
68378;DHT22;55322;48.146;11.516;2024-01-27T02:16:19;1.42;90.57
68378;DHT22;55322;48.146;11.516;2024-01-27T02:18:45;1.38;90.55
68378;DHT22;55322;48.146;11.516;2024-01-27T02:21:10;1.42;90.48
68378;DHT22;55322;48.146;11.516;2024-01-27T02:23:35;1.44;90.28
68378;DHT22;55322;48.146;11.516;2024-01-27T02:26:01;1.44;90.26
68378;DHT22;55322;48.146;11.516;2024-01-27T02:28:26;1.44;90.28
68378;DHT22;55322;48.146;11.516;2024-01-27T02:30:52;1.42;90.15
68378;DHT22;55322;48.146;11.516;2024-01-27T02:33:17;1.40;90.11
68378;DHT22;55322;48.146;11.516;2024-01-27T02:35:42;1.35;90.17
68378;DHT22;55322;48.146;11.516;2024-01-27T02:38:09;1.33;90.22
68378;DHT22;55322;48.146;11.516;2024-01-27T02:40:34;1.29;90.20
68378;DHT22;55322;48.146;11.516;2024-01-27T02:42:59;1.29;90.14
68378;DHT22;55322;48.146;11.516;2024-01-27T02:45:25;1.26;90.13
68378;DHT22;55322;48.146;11.516;2024-01-27T02:47:50;1.26;90.13
68378;DHT22;55322;48.146;11.516;2024-01-27T02:50:15;1.23;90.25
68378;DHT22;55322;48.146;11.516;2024-01-27T02:52:41;1.25;90.22
68378;DHT22;55322;48.146;11.516;2024-01-27T02:55:06;1.26;90.18
68378;DHT22;55322;48.146;11.516;2024-01-27T02:57:32;1.25;90.20
68378;DHT22;55322;48.146;11.516;2024-01-27T02:59:57;1.25;90.12
68378;DHT22;55322;48.146;11.516;2024-01-27T03:02:23;1.29;90.17
68378;DHT22;55322;48.146;11.516;2024-01-27T03:04:48;1.29;90.20
68378;DHT22;55322;48.146;11.516;2024-01-27T03:07:14;1.30;90.27
68378;DHT22;55322;48.146;11.516;2024-01-27T03:09:39;1.33;90.36
68378;DHT22;55322;48.146;11.516;2024-01-27T03:12:05;1.33;90.33
68378;DHT22;55322;48.146;11.516;2024-01-27T03:14:30;1.33;90.38
68378;DHT22;55322;48.146;11.516;2024-01-27T03:16:56;1.33;90.37
68378;DHT22;55322;48.146;11.516;2024-01-27T03:19:21;1.28;90.31
68378;DHT22;55322;48.146;11.516;2024-01-27T03:21:47;1.25;90.32
68378;DHT22;55322;48.146;11.516;2024-01-27T03:24:12;1.23;90.52
68378;DHT22;55322;48.146;11.516;2024-01-27T03:26:38;1.19;90.46
68378;DHT22;55322;48.146;11.516;2024-01-27T03:29:03;1.18;90.54
68378;DHT22;55322;48.146;11.516;2024-01-27T03:31:35;1.12;90.67
68378;DHT22;55322;48.146;11.516;2024-01-27T03:34:01;1.10;90.81
68378;DHT22;55322;48.146;11.516;2024-01-27T03:36:27;1.15;90.80
68378;DHT22;55322;48.146;11.516;2024-01-27T03:38:53;1.10;90.69
68378;DHT22;55322;48.146;11.516;2024-01-27T03:41:18;1.10;90.66
68378;DHT22;55322;48.146;11.516;2024-01-27T03:43:44;1.13;90.59
68378;DHT22;55322;48.146;11.516;2024-01-27T03:46:09;1.10;90.61
68378;DHT22;55322;48.146;11.516;2024-01-27T03:48:34;1.10;90.56
68378;DHT22;55322;48.146;11.516;2024-01-27T03:51:00;1.08;90.59
68378;DHT22;55322;48.146;11.516;2024-01-27T03:53:26;1.06;90.65
68378;DHT22;55322;48.146;11.516;2024-01-27T03:55:52;1.03;90.68
68378;DHT22;55322;48.146;11.516;2024-01-27T03:58:17;1.00;90.75
68378;DHT22;55322;48.146;11.516;2024-01-27T04:00:43;0.99;90.87
68378;DHT22;55322;48.146;11.516;2024-01-27T04:03:08;0.96;90.81
68378;DHT22;55322;48.146;11.516;2024-01-27T04:05:34;0.95;90.93
68378;DHT22;55322;48.146;11.516;2024-01-27T04:08:00;0.92;91.00
68378;DHT22;55322;48.146;11.516;2024-01-27T04:10:25;0.91;91.02
68378;DHT22;55322;48.146;11.516;2024-01-27T04:12:51;0.91;90.96
68378;DHT22;55322;48.146;11.516;2024-01-27T04:15:16;0.85;91.15
68378;DHT22;55322;48.146;11.516;2024-01-27T04:17:42;0.85;91.11
68378;DHT22;55322;48.146;11.516;2024-01-27T04:20:08;0.85;91.09
68378;DHT22;55322;48.146;11.516;2024-01-27T04:22:34;0.81;91.22
68378;DHT22;55322;48.146;11.516;2024-01-27T04:25:00;0.81;91.23
68378;DHT22;55322;48.146;11.516;2024-01-27T04:27:28;0.75;91.33
68378;DHT22;55322;48.146;11.516;2024-01-27T04:29:53;0.74;91.26
68378;DHT22;55322;48.146;11.516;2024-01-27T04:32:19;0.74;91.29
68378;DHT22;55322;48.146;11.516;2024-01-27T04:34:46;0.71;91.36
68378;DHT22;55322;48.146;11.516;2024-01-27T04:37:12;0.71;91.47
68378;DHT22;55322;48.146;11.516;2024-01-27T04:39:37;0.72;91.59
68378;DHT22;55322;48.146;11.516;2024-01-27T04:42:03;0.75;91.70
68378;DHT22;55322;48.146;11.516;2024-01-27T04:44:28;0.71;91.55
68378;DHT22;55322;48.146;11.516;2024-01-27T04:46:54;0.74;91.60
68378;DHT22;55322;48.146;11.516;2024-01-27T04:49:19;0.77;91.61
68378;DHT22;55322;48.146;11.516;2024-01-27T04:51:45;0.78;91.53
68378;DHT22;55322;48.146;11.516;2024-01-27T04:54:10;0.75;91.57
68378;DHT22;55322;48.146;11.516;2024-01-27T04:56:35;0.72;91.46
68378;DHT22;55322;48.146;11.516;2024-01-27T04:59:02;0.71;91.62
68378;DHT22;55322;48.146;11.516;2024-01-27T05:01:27;0.67;91.52
68378;DHT22;55322;48.146;11.516;2024-01-27T05:03:53;0.64;91.51
68378;DHT22;55322;48.146;11.516;2024-01-27T05:06:18;0.55;91.52
68378;DHT22;55322;48.146;11.516;2024-01-27T05:08:44;0.48;92.05
68378;DHT22;55322;48.146;11.516;2024-01-27T05:11:09;0.47;92.13
68378;DHT22;55322;48.146;11.516;2024-01-27T05:13:35;0.40;92.15
68378;DHT22;55322;48.146;11.516;2024-01-27T05:16:00;0.41;92.28
68378;DHT22;55322;48.146;11.516;2024-01-27T05:18:26;0.40;92.43
68378;DHT22;55322;48.146;11.516;2024-01-27T05:20:51;0.38;92.37
68378;DHT22;55322;48.146;11.516;2024-01-27T05:23:17;0.37;92.40
68378;DHT22;55322;48.146;11.516;2024-01-27T05:25:42;0.34;92.51
68378;DHT22;55322;48.146;11.516;2024-01-27T05:28:07;0.34;92.52
68378;DHT22;55322;48.146;11.516;2024-01-27T05:30:33;0.28;92.64
68378;DHT22;55322;48.146;11.516;2024-01-27T05:32:58;0.28;92.77
68378;DHT22;55322;48.146;11.516;2024-01-27T05:35:24;0.27;92.76
68378;DHT22;55322;48.146;11.516;2024-01-27T05:37:49;0.24;92.83
68378;DHT22;55322;48.146;11.516;2024-01-27T05:40:16;0.24;92.93
68378;DHT22;55322;48.146;11.516;2024-01-27T05:42:41;0.24;92.94
68378;DHT22;55322;48.146;11.516;2024-01-27T05:45:08;0.27;93.00
68378;DHT22;55322;48.146;11.516;2024-01-27T05:47:35;0.28;93.04
68378;DHT22;55322;48.146;11.516;2024-01-27T05:50:00;0.30;93.08
68378;DHT22;55322;48.146;11.516;2024-01-27T05:52:26;0.31;93.11
68378;DHT22;55322;48.146;11.516;2024-01-27T05:54:52;0.36;93.04
68378;DHT22;55322;48.146;11.516;2024-01-27T05:57:17;0.34;92.96
68378;DHT22;55322;48.146;11.516;2024-01-27T05:59:43;0.30;92.94
68378;DHT22;55322;48.146;11.516;2024-01-27T06:02:08;0.23;92.85
68378;DHT22;55322;48.146;11.516;2024-01-27T06:04:33;0.17;92.86
68378;DHT22;55322;48.146;11.516;2024-01-27T06:06:59;0.09;93.05
68378;DHT22;55322;48.146;11.516;2024-01-27T06:09:25;0.11;93.25
68378;DHT22;55322;48.146;11.516;2024-01-27T06:11:50;0.14;93.43
68378;DHT22;55322;48.146;11.516;2024-01-27T06:14:16;0.17;93.61
68378;DHT22;55322;48.146;11.516;2024-01-27T06:16:41;0.24;93.66
68378;DHT22;55322;48.146;11.516;2024-01-27T06:19:07;0.27;93.68
68378;DHT22;55322;48.146;11.516;2024-01-27T06:21:32;0.33;93.68
68378;DHT22;55322;48.146;11.516;2024-01-27T06:23:57;0.37;93.61
68378;DHT22;55322;48.146;11.516;2024-01-27T06:26:23;0.40;93.49
68378;DHT22;55322;48.146;11.516;2024-01-27T06:28:48;0.36;93.44
68378;DHT22;55322;48.146;11.516;2024-01-27T06:31:15;0.37;93.42
68378;DHT22;55322;48.146;11.516;2024-01-27T06:33:41;0.37;93.28
68378;DHT22;55322;48.146;11.516;2024-01-27T06:36:06;0.36;93.20
68378;DHT22;55322;48.146;11.516;2024-01-27T06:38:36;0.40;93.24
68378;DHT22;55322;48.146;11.516;2024-01-27T06:41:03;0.38;93.19
68378;DHT22;55322;48.146;11.516;2024-01-27T06:43:28;0.38;93.15
68378;DHT22;55322;48.146;11.516;2024-01-27T06:45:54;0.38;92.99
68378;DHT22;55322;48.146;11.516;2024-01-27T06:48:21;0.38;92.96
68378;DHT22;55322;48.146;11.516;2024-01-27T06:50:46;0.41;92.95
68378;DHT22;55322;48.146;11.516;2024-01-27T06:53:11;0.36;92.89
68378;DHT22;55322;48.146;11.516;2024-01-27T06:55:37;0.34;92.83
68378;DHT22;55322;48.146;11.516;2024-01-27T06:58:02;0.36;92.91
68378;DHT22;55322;48.146;11.516;2024-01-27T07:00:28;0.38;93.00
68378;DHT22;55322;48.146;11.516;2024-01-27T07:02:53;0.36;92.99
68378;DHT22;55322;48.146;11.516;2024-01-27T07:05:20;0.37;93.08
68378;DHT22;55322;48.146;11.516;2024-01-27T07:07:46;0.34;93.12
68378;DHT22;55322;48.146;11.516;2024-01-27T07:10:11;0.36;93.12
68378;DHT22;55322;48.146;11.516;2024-01-27T07:12:37;0.37;93.12
68378;DHT22;55322;48.146;11.516;2024-01-27T07:15:02;0.34;93.04
68378;DHT22;55322;48.146;11.516;2024-01-27T07:17:29;0.36;93.08
68378;DHT22;55322;48.146;11.516;2024-01-27T07:19:54;0.40;93.09
68378;DHT22;55322;48.146;11.516;2024-01-27T07:22:20;0.37;93.11
68378;DHT22;55322;48.146;11.516;2024-01-27T07:24:45;0.38;93.15
68378;DHT22;55322;48.146;11.516;2024-01-27T07:27:12;0.37;93.10
68378;DHT22;55322;48.146;11.516;2024-01-27T07:29:38;0.41;93.06
68378;DHT22;55322;48.146;11.516;2024-01-27T07:32:04;0.40;93.03
68378;DHT22;55322;48.146;11.516;2024-01-27T07:34:30;0.36;93.02
68378;DHT22;55322;48.146;11.516;2024-01-27T07:36:55;0.38;93.19
68378;DHT22;55322;48.146;11.516;2024-01-27T07:39:21;0.40;93.26
68378;DHT22;55322;48.146;11.516;2024-01-27T07:41:46;0.37;93.28
68378;DHT22;55322;48.146;11.516;2024-01-27T07:44:14;0.37;93.44
68378;DHT22;55322;48.146;11.516;2024-01-27T07:46:40;0.38;93.48
68378;DHT22;55322;48.146;11.516;2024-01-27T07:49:06;0.45;93.47
68378;DHT22;55322;48.146;11.516;2024-01-27T07:51:32;0.48;93.44
68378;DHT22;55322;48.146;11.516;2024-01-27T07:53:58;0.58;93.40
68378;DHT22;55322;48.146;11.516;2024-01-27T07:56:24;0.71;93.40
68378;DHT22;55322;48.146;11.516;2024-01-27T07:58:49;1.02;93.12
68378;DHT22;55322;48.146;11.516;2024-01-27T08:01:18;1.73;92.05
68378;DHT22;55322;48.146;11.516;2024-01-27T08:03:44;2.82;89.34
68378;DHT22;55322;48.146;11.516;2024-01-27T08:06:15;3.81;85.24
68378;DHT22;55322;48.146;11.516;2024-01-27T08:08:43;4.80;81.37
68378;DHT22;55322;48.146;11.516;2024-01-27T08:11:09;5.44;77.27
68378;DHT22;55322;48.146;11.516;2024-01-27T08:13:34;5.79;75.74
68378;DHT22;55322;48.146;11.516;2024-01-27T08:16:00;6.12;74.57
68378;DHT22;55322;48.146;11.516;2024-01-27T08:18:25;6.41;73.46
68378;DHT22;55322;48.146;11.516;2024-01-27T08:20:50;6.43;71.96
68378;DHT22;55322;48.146;11.516;2024-01-27T08:23:16;6.41;71.76
68378;DHT22;55322;48.146;11.516;2024-01-27T08:25:42;6.44;72.33
68378;DHT22;55322;48.146;11.516;2024-01-27T08:28:09;6.64;72.05
68378;DHT22;55322;48.146;11.516;2024-01-27T08:30:35;7.18;71.23
68378;DHT22;55322;48.146;11.516;2024-01-27T08:33:00;7.55;68.36
68378;DHT22;55322;48.146;11.516;2024-01-27T08:35:25;7.77;68.31
68378;DHT22;55322;48.146;11.516;2024-01-27T08:37:51;8.23;66.25
68378;DHT22;55322;48.146;11.516;2024-01-27T08:40:16;8.31;64.49
68378;DHT22;55322;48.146;11.516;2024-01-27T08:42:42;8.24;65.81
68378;DHT22;55322;48.146;11.516;2024-01-27T08:45:07;8.21;66.35
68378;DHT22;55322;48.146;11.516;2024-01-27T08:47:33;8.35;65.75
68378;DHT22;55322;48.146;11.516;2024-01-27T08:49:58;8.79;64.23
68378;DHT22;55322;48.146;11.516;2024-01-27T08:52:24;9.03;62.83
68378;DHT22;55322;48.146;11.516;2024-01-27T08:54:49;9.58;61.70
68378;DHT22;55322;48.146;11.516;2024-01-27T08:57:14;9.93;61.03
68378;DHT22;55322;48.146;11.516;2024-01-27T08:59:40;9.99;59.62
68378;DHT22;55322;48.146;11.516;2024-01-27T09:02:05;10.09;59.87
68378;DHT22;55322;48.146;11.516;2024-01-27T09:04:31;10.18;59.62
68378;DHT22;55322;48.146;11.516;2024-01-27T09:06:56;10.44;58.71
68378;DHT22;55322;48.146;11.516;2024-01-27T09:09:21;10.76;59.02
68378;DHT22;55322;48.146;11.516;2024-01-27T09:11:47;10.86;58.38
68378;DHT22;55322;48.146;11.516;2024-01-27T09:14:14;10.77;58.37
68378;DHT22;55322;48.146;11.516;2024-01-27T09:16:39;10.75;57.59
68378;DHT22;55322;48.146;11.516;2024-01-27T09:19:05;10.75;57.03
68378;DHT22;55322;48.146;11.516;2024-01-27T09:21:30;10.75;57.42
68378;DHT22;55322;48.146;11.516;2024-01-27T09:23:58;10.97;57.32
68378;DHT22;55322;48.146;11.516;2024-01-27T09:26:23;10.65;57.42
68378;DHT22;55322;48.146;11.516;2024-01-27T09:28:49;10.70;58.84
68378;DHT22;55322;48.146;11.516;2024-01-27T09:31:20;10.70;57.31
68378;DHT22;55322;48.146;11.516;2024-01-27T09:33:50;10.50;57.14
68378;DHT22;55322;48.146;11.516;2024-01-27T09:36:16;10.55;57.31
68378;DHT22;55322;48.146;11.516;2024-01-27T09:38:42;10.69;57.42
68378;DHT22;55322;48.146;11.516;2024-01-27T09:41:08;11.02;56.91
68378;DHT22;55322;48.146;11.516;2024-01-27T09:43:35;10.28;56.76
68378;DHT22;55322;48.146;11.516;2024-01-27T09:46:02;10.19;58.90
68378;DHT22;55322;48.146;11.516;2024-01-27T09:48:29;10.48;57.19
68378;DHT22;55322;48.146;11.516;2024-01-27T09:50:58;10.68;57.45
68378;DHT22;55322;48.146;11.516;2024-01-27T09:53:23;10.39;55.58
68378;DHT22;55322;48.146;11.516;2024-01-27T09:55:49;9.53;59.36
68378;DHT22;55322;48.146;11.516;2024-01-27T09:58:15;9.44;59.30
68378;DHT22;55322;48.146;11.516;2024-01-27T10:00:41;9.36;59.52
68378;DHT22;55322;48.146;11.516;2024-01-27T10:03:07;9.32;59.75
68378;DHT22;55322;48.146;11.516;2024-01-27T10:05:33;8.68;59.93
68378;DHT22;55322;48.146;11.516;2024-01-27T10:08:00;8.24;61.40
68378;DHT22;55322;48.146;11.516;2024-01-27T10:10:25;8.44;61.60
68378;DHT22;55322;48.146;11.516;2024-01-27T10:12:52;9.08;61.57
68378;DHT22;55322;48.146;11.516;2024-01-27T10:15:22;9.87;59.59
68378;DHT22;55322;48.146;11.516;2024-01-27T10:17:48;10.45;56.60
68378;DHT22;55322;48.146;11.516;2024-01-27T10:20:14;10.79;56.55
68378;DHT22;55322;48.146;11.516;2024-01-27T10:22:41;10.97;53.23
68378;DHT22;55322;48.146;11.516;2024-01-27T10:25:08;11.07;51.55
68378;DHT22;55322;48.146;11.516;2024-01-27T10:27:34;11.07;54.94
68378;DHT22;55322;48.146;11.516;2024-01-27T10:29:59;11.26;54.61
68378;DHT22;55322;48.146;11.516;2024-01-27T10:32:24;11.24;53.45
68378;DHT22;55322;48.146;11.516;2024-01-27T10:35:07;11.79;53.39
68378;DHT22;55322;48.146;11.516;2024-01-27T10:37:36;11.54;52.72
68378;DHT22;55322;48.146;11.516;2024-01-27T10:40:08;11.02;54.55
68378;DHT22;55322;48.146;11.516;2024-01-27T10:42:35;10.07;55.46
68378;DHT22;55322;48.146;11.516;2024-01-27T10:45:03;10.45;56.42
68378;DHT22;55322;48.146;11.516;2024-01-27T10:47:30;9.99;57.96
68378;DHT22;55322;48.146;11.516;2024-01-27T10:49:57;10.53;57.73
68378;DHT22;55322;48.146;11.516;2024-01-27T10:52:32;10.52;55.76
68378;DHT22;55322;48.146;11.516;2024-01-27T10:55:03;10.04;55.01
68378;DHT22;55322;48.146;11.516;2024-01-27T10:57:33;10.14;55.10
68378;DHT22;55322;48.146;11.516;2024-01-27T11:00:00;10.42;54.82
68378;DHT22;55322;48.146;11.516;2024-01-27T11:02:28;10.68;56.60
68378;DHT22;55322;48.146;11.516;2024-01-27T11:04:58;10.62;55.58
68378;DHT22;55322;48.146;11.516;2024-01-27T11:07:25;10.29;55.91
68378;DHT22;55322;48.146;11.516;2024-01-27T11:09:52;10.44;52.58
68378;DHT22;55322;48.146;11.516;2024-01-27T11:12:19;10.39;54.01
68378;DHT22;55322;48.146;11.516;2024-01-27T11:14:47;10.31;52.93
68378;DHT22;55322;48.146;11.516;2024-01-27T11:17:13;9.44;54.11
68378;DHT22;55322;48.146;11.516;2024-01-27T11:19:39;9.13;55.45
68378;DHT22;55322;48.146;11.516;2024-01-27T11:22:05;9.63;58.79
68378;DHT22;55322;48.146;11.516;2024-01-27T11:27:15;10.63;56.07
68378;DHT22;55322;48.146;11.516;2024-01-27T11:29:47;10.93;55.55
68378;DHT22;55322;48.146;11.516;2024-01-27T11:32:12;10.12;57.87
68378;DHT22;55322;48.146;11.516;2024-01-27T11:34:45;10.04;57.81
68378;DHT22;55322;48.146;11.516;2024-01-27T11:37:15;10.27;57.26
68378;DHT22;55322;48.146;11.516;2024-01-27T11:39:40;9.60;57.39
68378;DHT22;55322;48.146;11.516;2024-01-27T11:42:10;9.75;55.91
68378;DHT22;55322;48.146;11.516;2024-01-27T11:44:40;10.07;58.12
68378;DHT22;55322;48.146;11.516;2024-01-27T11:47:15;10.41;58.23
68378;DHT22;55322;48.146;11.516;2024-01-27T11:49:41;10.48;53.46
68378;DHT22;55322;48.146;11.516;2024-01-27T11:52:07;9.84;57.83
68378;DHT22;55322;48.146;11.516;2024-01-27T11:54:32;9.84;56.64
68378;DHT22;55322;48.146;11.516;2024-01-27T11:56:58;9.88;58.27
68378;DHT22;55322;48.146;11.516;2024-01-27T11:59:23;10.18;52.20
68378;DHT22;55322;48.146;11.516;2024-01-27T12:01:49;9.84;55.57
68378;DHT22;55322;48.146;11.516;2024-01-27T12:04:14;9.84;56.60
68378;DHT22;55322;48.146;11.516;2024-01-27T12:06:41;9.83;57.44
68378;DHT22;55322;48.146;11.516;2024-01-27T12:09:07;10.12;54.22
68378;DHT22;55322;48.146;11.516;2024-01-27T12:11:40;9.91;54.45
68378;DHT22;55322;48.146;11.516;2024-01-27T12:14:06;9.93;55.63
68378;DHT22;55322;48.146;11.516;2024-01-27T12:16:31;9.50;54.43
68378;DHT22;55322;48.146;11.516;2024-01-27T12:18:57;9.15;54.40
68378;DHT22;55322;48.146;11.516;2024-01-27T12:21:22;9.30;56.07
68378;DHT22;55322;48.146;11.516;2024-01-27T12:23:57;9.48;56.54
68378;DHT22;55322;48.146;11.516;2024-01-27T12:26:28;9.46;52.55
68378;DHT22;55322;48.146;11.516;2024-01-27T12:28:54;9.40;55.03
68378;DHT22;55322;48.146;11.516;2024-01-27T12:31:22;9.19;56.05
68378;DHT22;55322;48.146;11.516;2024-01-27T12:33:51;9.24;56.43
68378;DHT22;55322;48.146;11.516;2024-01-27T12:36:18;9.22;54.80
68378;DHT22;55322;48.146;11.516;2024-01-27T12:38:53;8.85;55.90
68378;DHT22;55322;48.146;11.516;2024-01-27T12:41:18;8.89;55.60
68378;DHT22;55322;48.146;11.516;2024-01-27T12:43:44;8.67;56.28
68378;DHT22;55322;48.146;11.516;2024-01-27T12:46:09;8.68;57.94
68378;DHT22;55322;48.146;11.516;2024-01-27T12:48:36;8.72;59.45
68378;DHT22;55322;48.146;11.516;2024-01-27T12:51:01;8.52;58.11
68378;DHT22;55322;48.146;11.516;2024-01-27T12:53:27;8.14;57.93
68378;DHT22;55322;48.146;11.516;2024-01-27T12:55:53;7.95;56.90
68378;DHT22;55322;48.146;11.516;2024-01-27T12:58:18;7.84;57.99
68378;DHT22;55322;48.146;11.516;2024-01-27T13:00:44;7.86;59.98
68378;DHT22;55322;48.146;11.516;2024-01-27T13:03:09;8.03;57.45
68378;DHT22;55322;48.146;11.516;2024-01-27T13:05:34;8.10;56.73
68378;DHT22;55322;48.146;11.516;2024-01-27T13:08:00;8.30;57.41
68378;DHT22;55322;48.146;11.516;2024-01-27T13:10:25;8.20;58.38
68378;DHT22;55322;48.146;11.516;2024-01-27T13:12:50;8.25;55.35
68378;DHT22;55322;48.146;11.516;2024-01-27T13:15:16;8.24;56.64
68378;DHT22;55322;48.146;11.516;2024-01-27T13:17:41;8.40;56.84
68378;DHT22;55322;48.146;11.516;2024-01-27T13:20:07;8.35;55.80
68378;DHT22;55322;48.146;11.516;2024-01-27T13:22:32;8.15;54.71
68378;DHT22;55322;48.146;11.516;2024-01-27T13:24:58;8.03;56.53
68378;DHT22;55322;48.146;11.516;2024-01-27T13:27:26;8.00;59.76
68378;DHT22;55322;48.146;11.516;2024-01-27T13:29:52;8.03;59.11
68378;DHT22;55322;48.146;11.516;2024-01-27T13:32:17;8.13;56.63
68378;DHT22;55322;48.146;11.516;2024-01-27T13:34:42;8.34;57.90
68378;DHT22;55322;48.146;11.516;2024-01-27T13:37:08;8.57;54.92
68378;DHT22;55322;48.146;11.516;2024-01-27T13:39:34;8.15;57.82
68378;DHT22;55322;48.146;11.516;2024-01-27T13:42:00;7.67;57.43
68378;DHT22;55322;48.146;11.516;2024-01-27T13:44:26;7.45;58.24
68378;DHT22;55322;48.146;11.516;2024-01-27T13:46:51;7.39;57.87
68378;DHT22;55322;48.146;11.516;2024-01-27T13:49:17;7.55;56.83
68378;DHT22;55322;48.146;11.516;2024-01-27T13:51:42;7.73;59.33
68378;DHT22;55322;48.146;11.516;2024-01-27T13:54:08;7.69;55.32
68378;DHT22;55322;48.146;11.516;2024-01-27T13:56:34;7.29;59.48
68378;DHT22;55322;48.146;11.516;2024-01-27T13:59:00;7.05;56.21
68378;DHT22;55322;48.146;11.516;2024-01-27T14:01:25;6.91;57.23
68378;DHT22;55322;48.146;11.516;2024-01-27T14:03:50;6.65;57.24
68378;DHT22;55322;48.146;11.516;2024-01-27T14:06:16;6.73;58.88
68378;DHT22;55322;48.146;11.516;2024-01-27T14:08:43;6.81;59.90
68378;DHT22;55322;48.146;11.516;2024-01-27T14:11:08;6.80;60.80
68378;DHT22;55322;48.146;11.516;2024-01-27T14:13:34;6.75;58.61
68378;DHT22;55322;48.146;11.516;2024-01-27T14:16:00;6.70;60.67
68378;DHT22;55322;48.146;11.516;2024-01-27T14:18:25;6.68;60.17
68378;DHT22;55322;48.146;11.516;2024-01-27T14:20:50;6.73;61.39
68378;DHT22;55322;48.146;11.516;2024-01-27T14:23:16;6.80;60.75
68378;DHT22;55322;48.146;11.516;2024-01-27T14:25:42;6.71;61.38
68378;DHT22;55322;48.146;11.516;2024-01-27T14:28:08;6.74;59.20
68378;DHT22;55322;48.146;11.516;2024-01-27T14:30:35;6.71;59.55
68378;DHT22;55322;48.146;11.516;2024-01-27T14:33:01;6.60;58.19
68378;DHT22;55322;48.146;11.516;2024-01-27T14:35:26;6.50;58.56
68378;DHT22;55322;48.146;11.516;2024-01-27T14:37:52;6.51;60.30
68378;DHT22;55322;48.146;11.516;2024-01-27T14:40:19;6.40;61.40
68378;DHT22;55322;48.146;11.516;2024-01-27T14:42:46;6.32;60.23
68378;DHT22;55322;48.146;11.516;2024-01-27T14:45:11;6.33;60.96
68378;DHT22;55322;48.146;11.516;2024-01-27T14:47:37;6.26;61.56
68378;DHT22;55322;48.146;11.516;2024-01-27T14:50:03;6.22;60.64
68378;DHT22;55322;48.146;11.516;2024-01-27T14:52:29;6.14;62.44
68378;DHT22;55322;48.146;11.516;2024-01-27T14:54:54;6.13;61.43
68378;DHT22;55322;48.146;11.516;2024-01-27T14:57:20;6.05;63.48
68378;DHT22;55322;48.146;11.516;2024-01-27T14:59:45;5.95;65.55
68378;DHT22;55322;48.146;11.516;2024-01-27T15:02:10;5.83;63.46
68378;DHT22;55322;48.146;11.516;2024-01-27T15:04:36;5.78;61.98
68378;DHT22;55322;48.146;11.516;2024-01-27T15:07:02;5.80;59.73
68378;DHT22;55322;48.146;11.516;2024-01-27T15:09:27;5.76;62.75
68378;DHT22;55322;48.146;11.516;2024-01-27T15:11:53;5.62;63.32
68378;DHT22;55322;48.146;11.516;2024-01-27T15:14:18;5.51;65.75
68378;DHT22;55322;48.146;11.516;2024-01-27T15:16:45;5.39;66.04
68378;DHT22;55322;48.146;11.516;2024-01-27T15:19:10;5.28;65.59
68378;DHT22;55322;48.146;11.516;2024-01-27T15:21:36;5.23;65.26